createdAt,value
2022-11-30T00:00:13.913Z,100.00
2022-11-30T00:01:35.727Z,100.00
2022-11-30T00:02:37.535Z,100.00
2022-11-30T00:03:39.497Z,100.00
2022-11-30T00:04:41.269Z,100.00
2022-11-30T00:05:43.018Z,100.00
2022-11-30T00:06:44.756Z,100.00
2022-11-30T00:07:47.524Z,100.00
2022-11-30T00:08:57.099Z,100.00
2022-11-30T00:09:58.924Z,100.00
2022-11-30T00:11:00.987Z,100.00
2022-11-30T00:12:02.760Z,100.00
2022-11-30T00:13:05.077Z,100.00
2022-11-30T00:14:06.836Z,100.00
2022-11-30T00:15:13.989Z,100.00
2022-11-30T00:16:15.893Z,100.00
2022-11-30T00:17:17.725Z,100.00
2022-11-30T00:18:19.658Z,100.00
2022-11-30T00:19:21.475Z,100.00
2022-11-30T00:20:23.699Z,100.00
2022-11-30T00:21:25.423Z,100.00
2022-11-30T00:22:27.195Z,100.00
2022-11-30T00:23:34.056Z,100.00
2022-11-30T00:24:35.797Z,100.00
2022-11-30T00:25:37.590Z,100.00
2022-11-30T00:26:39.383Z,100.00
2022-11-30T00:27:41.253Z,100.00
2022-11-30T00:29:03.071Z,100.00
2022-11-30T00:30:06.054Z,100.00
2022-11-30T00:31:12.161Z,100.00
2022-11-30T00:32:13.999Z,100.00
2022-11-30T00:33:15.741Z,100.00
2022-11-30T00:34:17.752Z,100.00
2022-11-30T00:35:19.463Z,100.00
2022-11-30T00:36:22.632Z,100.00
2022-11-30T00:37:24.662Z,100.00
2022-11-30T00:38:26.753Z,100.00
2022-11-30T00:39:33.884Z,100.00
2022-11-30T00:40:37.091Z,100.00
2022-11-30T00:41:38.800Z,100.00
2022-11-30T00:42:40.551Z,100.00
2022-11-30T00:43:42.385Z,100.00
2022-11-30T00:44:44.321Z,100.00
2022-11-30T00:45:47.106Z,100.00
2022-11-30T00:46:48.927Z,100.00
2022-11-30T00:47:50.700Z,100.00
2022-11-30T00:48:52.457Z,100.00
2022-11-30T00:49:54.415Z,100.00
2022-11-30T00:50:56.212Z,100.00
2022-11-30T00:51:58.084Z,100.00
2022-11-30T00:53:00.287Z,100.00
2022-11-30T00:54:02.108Z,100.00
2022-11-30T00:55:04.569Z,100.00
2022-11-30T00:56:07.343Z,100.00
2022-11-30T00:57:09.093Z,100.00
2022-11-30T00:58:12.089Z,100.00
2022-11-30T00:59:15.199Z,100.00
2022-11-30T01:00:17.337Z,100.00
2022-11-30T01:01:19.110Z,100.00
2022-11-30T01:02:21.003Z,100.00
2022-11-30T01:03:22.839Z,100.00
2022-11-30T01:04:24.596Z,100.00
2022-11-30T01:05:26.574Z,100.00
2022-11-30T01:06:28.771Z,100.00
2022-11-30T01:07:30.706Z,100.00
2022-11-30T01:08:33.231Z,100.00
2022-11-30T01:09:34.962Z,100.00
2022-11-30T01:10:39.390Z,100.00
2022-11-30T01:11:41.106Z,100.00
2022-11-30T01:12:42.995Z,100.00
2022-11-30T01:13:44.866Z,100.00
2022-11-30T01:14:46.834Z,100.00
2022-11-30T01:15:48.865Z,100.00
2022-11-30T01:16:55.967Z,100.00
2022-11-30T01:18:01.226Z,100.00
2022-11-30T01:19:04.018Z,100.00
2022-11-30T01:20:08.076Z,100.00
2022-11-30T01:21:13.826Z,100.00
2022-11-30T01:22:15.588Z,100.00
2022-11-30T01:23:17.376Z,100.00
2022-11-30T01:24:19.200Z,100.00
2022-11-30T01:25:21.091Z,100.00
2022-11-30T01:26:23.827Z,100.00
2022-11-30T01:27:25.665Z,100.00
2022-11-30T01:28:27.597Z,100.00
2022-11-30T01:29:29.419Z,100.00
2022-11-30T01:30:31.244Z,100.00
2022-11-30T01:31:33.233Z,100.00
2022-11-30T01:32:35.021Z,100.00
2022-11-30T01:33:36.777Z,100.00
2022-11-30T01:34:38.482Z,100.00
2022-11-30T01:35:40.226Z,100.00
2022-11-30T01:36:43.647Z,100.00
2022-11-30T01:37:45.518Z,100.00
2022-11-30T01:38:51.049Z,100.00
2022-11-30T01:39:52.830Z,100.00
2022-11-30T01:40:54.618Z,100.00
2022-11-30T01:41:56.546Z,100.00
2022-11-30T01:42:58.572Z,100.00
2022-11-30T01:44:06.033Z,100.00
2022-11-30T01:45:12.878Z,100.00
2022-11-30T01:46:17.544Z,100.00
2022-11-30T01:47:32.089Z,100.00
2022-11-30T01:48:33.872Z,100.00
2022-11-30T01:49:47.714Z,100.00
2022-11-30T01:50:49.482Z,100.00
2022-11-30T01:52:02.898Z,100.00
2022-11-30T01:53:10.956Z,100.00
2022-11-30T01:54:18.042Z,100.00
2022-11-30T01:55:42.752Z,100.00
2022-11-30T01:56:52.421Z,100.00
2022-11-30T01:58:16.887Z,100.00
2022-11-30T01:59:22.317Z,100.00
2022-11-30T02:00:24.357Z,100.00
2022-11-30T02:01:26.331Z,100.00
2022-11-30T02:02:48.069Z,100.00
2022-11-30T02:04:00.033Z,100.00
2022-11-30T02:05:02.598Z,100.00
2022-11-30T02:06:04.634Z,100.00
2022-11-30T02:07:08.667Z,100.00
2022-11-30T02:08:11.755Z,100.00
2022-11-30T02:09:17.979Z,100.00
2022-11-30T02:10:28.245Z,100.00
2022-11-30T02:11:30.089Z,100.00
2022-11-30T02:13:08.325Z,100.00
2022-11-30T02:14:26.601Z,100.00
2022-11-30T02:15:42.137Z,100.00
2022-11-30T02:17:01.162Z,100.00
2022-11-30T02:18:13.476Z,100.00
2022-11-30T02:19:49.574Z,100.00
2022-11-30T02:20:54.034Z,100.00
2022-11-30T02:22:33.012Z,100.00
2022-11-30T02:24:03.981Z,100.00
2022-11-30T02:25:05.897Z,100.00
2022-11-30T02:26:50.214Z,100.00
2022-11-30T02:28:13.022Z,100.00
2022-11-30T02:29:29.308Z,100.00
2022-11-30T02:30:37.925Z,100.00
2022-11-30T02:31:59.482Z,100.00
2022-11-30T02:33:11.295Z,100.00
2022-11-30T02:34:18.380Z,100.00
2022-11-30T02:35:27.147Z,100.00
2022-11-30T02:36:31.701Z,100.00
2022-11-30T02:37:37.009Z,100.00
2022-11-30T02:38:40.693Z,100.00
2022-11-30T02:39:44.200Z,100.00
2022-11-30T02:40:46.281Z,100.00
2022-11-30T02:41:48.153Z,100.00
2022-11-30T02:42:53.941Z,100.00
2022-11-30T02:43:55.855Z,100.00
2022-11-30T02:44:58.032Z,100.00
2022-11-30T02:46:26.634Z,100.00
2022-11-30T02:47:37.855Z,100.00
2022-11-30T02:48:50.136Z,100.00
2022-11-30T02:50:01.173Z,100.00
2022-11-30T02:51:07.905Z,100.00
2022-11-30T02:52:12.888Z,100.00
2022-11-30T02:53:14.739Z,100.00
2022-11-30T02:54:18.381Z,100.00
2022-11-30T02:55:20.757Z,100.00
2022-11-30T02:56:23.108Z,100.00
2022-11-30T02:57:24.847Z,100.00
2022-11-30T02:58:26.671Z,100.00
2022-11-30T02:59:29.589Z,100.00
2022-11-30T03:00:32.048Z,100.00
2022-11-30T03:01:33.889Z,100.00
2022-11-30T03:02:35.737Z,100.00
2022-11-30T03:03:37.624Z,100.00
2022-11-30T03:04:39.409Z,100.00
2022-11-30T03:05:41.176Z,100.00
2022-11-30T03:06:43.219Z,100.00
2022-11-30T03:07:45.248Z,100.00
2022-11-30T03:08:47.036Z,100.00
2022-11-30T03:09:48.982Z,100.00
2022-11-30T03:10:50.704Z,100.00
2022-11-30T03:11:52.467Z,100.00
2022-11-30T03:12:58.670Z,100.00
2022-11-30T03:14:00.508Z,100.00
2022-11-30T03:15:02.310Z,100.00
2022-11-30T03:16:11.858Z,100.00
2022-11-30T03:17:13.764Z,100.00
2022-11-30T03:18:15.500Z,100.00
2022-11-30T03:19:17.336Z,100.00
2022-11-30T03:20:19.112Z,100.00
2022-11-30T03:21:20.889Z,100.00
2022-11-30T03:22:23.729Z,100.00
2022-11-30T03:23:25.467Z,100.00
2022-11-30T03:24:27.392Z,100.00
2022-11-30T03:25:29.819Z,100.00
2022-11-30T03:26:31.572Z,100.00
2022-11-30T03:27:33.573Z,100.00
2022-11-30T03:28:36.907Z,100.00
2022-11-30T03:29:39.357Z,100.00
2022-11-30T03:30:41.361Z,100.00
2022-11-30T03:31:43.096Z,100.00
2022-11-30T03:32:44.816Z,100.00
2022-11-30T03:33:46.560Z,100.00
2022-11-30T03:34:48.543Z,100.00
2022-11-30T03:36:02.510Z,100.00
2022-11-30T03:37:04.328Z,100.00
2022-11-30T03:38:06.221Z,100.00
2022-11-30T03:39:08.012Z,100.00
2022-11-30T03:40:10.535Z,100.00
2022-11-30T03:41:16.479Z,100.00
2022-11-30T03:42:18.331Z,100.00
2022-11-30T03:43:20.087Z,100.00
2022-11-30T03:44:21.903Z,100.00
2022-11-30T03:45:23.654Z,100.00
2022-11-30T03:46:27.230Z,100.00
2022-11-30T03:47:29.222Z,100.00
2022-11-30T03:48:31.671Z,100.00
2022-11-30T03:49:33.512Z,100.00
2022-11-30T03:50:35.222Z,100.00
2022-11-30T03:51:37.001Z,100.00
2022-11-30T03:52:38.833Z,100.00
2022-11-30T03:53:41.349Z,100.00
2022-11-30T03:54:43.149Z,100.00
2022-11-30T03:55:45.355Z,100.00
2022-11-30T03:56:47.133Z,100.00
2022-11-30T03:57:48.976Z,100.00
2022-11-30T03:58:51.303Z,100.00
2022-11-30T03:59:53.073Z,100.00
2022-11-30T04:01:05.876Z,100.00
2022-11-30T04:02:07.660Z,100.00
2022-11-30T04:03:09.786Z,100.00
2022-11-30T04:04:12.629Z,100.00
2022-11-30T04:05:14.554Z,100.00
2022-11-30T04:06:17.923Z,100.00
2022-11-30T04:07:19.681Z,100.00
2022-11-30T04:08:21.526Z,100.00
2022-11-30T04:09:23.287Z,100.00
2022-11-30T04:10:25.062Z,100.00
2022-11-30T04:11:26.816Z,100.00
2022-11-30T04:12:28.579Z,100.00
2022-11-30T04:13:32.299Z,100.00
2022-11-30T04:14:34.041Z,100.00
2022-11-30T04:15:35.813Z,100.00
2022-11-30T04:16:37.593Z,100.00
2022-11-30T04:17:39.319Z,100.00
2022-11-30T04:18:41.442Z,100.00
2022-11-30T04:19:43.158Z,100.00
2022-11-30T04:20:45.093Z,100.00
2022-11-30T04:21:46.837Z,100.00
2022-11-30T04:22:48.621Z,100.00
2022-11-30T04:23:50.385Z,100.00
2022-11-30T04:24:52.167Z,100.00
2022-11-30T04:25:53.889Z,100.00
2022-11-30T04:26:55.612Z,100.00
2022-11-30T04:27:57.469Z,100.00
2022-11-30T04:29:03.228Z,100.00
2022-11-30T04:30:07.207Z,100.00
2022-11-30T04:31:09.702Z,100.00
2022-11-30T04:32:11.565Z,100.00
2022-11-30T04:33:15.392Z,100.00
2022-11-30T04:34:17.185Z,100.00
2022-11-30T04:35:18.926Z,100.00
2022-11-30T04:36:21.549Z,100.00
2022-11-30T04:37:23.287Z,100.00
2022-11-30T04:38:26.354Z,100.00
2022-11-30T04:39:28.102Z,100.00
2022-11-30T04:40:29.819Z,100.00
2022-11-30T04:41:31.715Z,100.00
2022-11-30T04:42:33.451Z,100.00
2022-11-30T04:43:36.333Z,100.00
2022-11-30T04:44:38.058Z,100.00
2022-11-30T04:45:41.067Z,100.00
2022-11-30T04:46:42.908Z,100.00
2022-11-30T04:47:44.710Z,100.00
2022-11-30T04:48:46.451Z,100.00
2022-11-30T04:49:48.263Z,100.00
2022-11-30T04:50:50.115Z,100.00
2022-11-30T04:51:51.869Z,100.00
2022-11-30T04:52:53.812Z,100.00
2022-11-30T04:53:55.609Z,100.00
2022-11-30T04:54:57.311Z,100.00
2022-11-30T04:55:59.369Z,100.00
2022-11-30T04:57:01.150Z,100.00
2022-11-30T04:58:02.913Z,100.00
2022-11-30T04:59:04.803Z,100.00
2022-11-30T05:00:07.486Z,100.00
2022-11-30T05:01:09.412Z,100.00
2022-11-30T05:02:11.434Z,100.00
2022-11-30T05:03:13.207Z,100.00
2022-11-30T05:04:15.132Z,100.00
2022-11-30T05:05:17.409Z,100.00
2022-11-30T05:06:19.209Z,100.00
2022-11-30T05:07:21.019Z,100.00
2022-11-30T05:08:23.045Z,100.00
2022-11-30T05:09:24.797Z,100.00
2022-11-30T05:10:28.252Z,100.00
2022-11-30T05:11:30.034Z,100.00
2022-11-30T05:12:32.267Z,100.00
2022-11-30T05:13:34.017Z,100.00
2022-11-30T05:14:35.862Z,100.00
2022-11-30T05:15:37.625Z,100.00
2022-11-30T05:16:39.385Z,100.00
2022-11-30T05:17:41.173Z,100.00
2022-11-30T05:18:42.916Z,100.00
2022-11-30T05:19:44.659Z,100.00
2022-11-30T05:20:53.511Z,100.00
2022-11-30T05:21:55.385Z,100.00
2022-11-30T05:22:57.711Z,100.00
2022-11-30T05:23:59.568Z,100.00
2022-11-30T05:25:01.653Z,100.00
2022-11-30T05:26:04.027Z,100.00
2022-11-30T05:27:12.686Z,100.00
2022-11-30T05:28:16.582Z,100.00
2022-11-30T05:29:18.500Z,100.00
2022-11-30T05:30:20.374Z,100.00
2022-11-30T05:31:22.192Z,100.00
2022-11-30T05:32:24.056Z,100.00
2022-11-30T05:33:25.783Z,100.00
2022-11-30T05:34:28.009Z,100.00
2022-11-30T05:35:29.797Z,100.00
2022-11-30T05:36:31.549Z,100.00
2022-11-30T05:37:33.320Z,100.00
2022-11-30T05:38:35.055Z,100.00
2022-11-30T05:39:36.909Z,100.00
2022-11-30T05:40:38.706Z,100.00
2022-11-30T05:41:40.473Z,100.00
2022-11-30T05:42:42.395Z,100.00
2022-11-30T05:43:44.856Z,100.00
2022-11-30T05:44:48.037Z,100.00
2022-11-30T05:45:50.050Z,100.00
2022-11-30T05:46:51.857Z,100.00
2022-11-30T05:47:54.067Z,100.00
2022-11-30T05:48:55.813Z,100.00
2022-11-30T05:49:57.561Z,100.00
2022-11-30T05:51:17.566Z,100.00
2022-11-30T05:52:19.314Z,100.00
2022-11-30T05:53:21.122Z,100.00
2022-11-30T05:54:22.865Z,100.00
2022-11-30T05:55:25.102Z,100.00
2022-11-30T05:56:26.882Z,100.00
2022-11-30T05:57:28.690Z,100.00
2022-11-30T05:58:30.573Z,100.00
2022-11-30T05:59:32.452Z,100.00
2022-11-30T06:00:34.217Z,100.00
2022-11-30T06:01:36.003Z,100.00
2022-11-30T06:02:37.861Z,100.00
2022-11-30T06:03:39.850Z,100.00
2022-11-30T06:04:41.632Z,100.00
2022-11-30T06:05:43.355Z,100.00
2022-11-30T06:06:45.090Z,100.00
2022-11-30T06:07:46.827Z,100.00
2022-11-30T06:08:50.622Z,100.00
2022-11-30T06:09:52.348Z,100.00
2022-11-30T06:10:54.542Z,100.00
2022-11-30T06:11:56.245Z,100.00
2022-11-30T06:12:58.020Z,100.00
2022-11-30T06:13:59.811Z,100.00
2022-11-30T06:15:01.603Z,100.00
2022-11-30T06:16:04.758Z,100.00
2022-11-30T06:17:06.801Z,100.00
2022-11-30T06:18:12.665Z,100.00
2022-11-30T06:19:14.406Z,100.00
2022-11-30T06:20:16.302Z,100.00
2022-11-30T06:21:22.724Z,100.00
2022-11-30T06:22:26.328Z,100.00
2022-11-30T06:23:28.675Z,100.00
2022-11-30T06:24:30.550Z,100.00
2022-11-30T06:25:32.459Z,100.00
2022-11-30T06:26:34.170Z,100.00
2022-11-30T06:27:35.897Z,100.00
2022-11-30T06:28:38.339Z,100.00
2022-11-30T06:29:40.115Z,100.00
2022-11-30T06:30:42.024Z,100.00
2022-11-30T06:31:44.326Z,100.00
2022-11-30T06:32:51.947Z,100.00
2022-11-30T06:33:57.557Z,100.00
2022-11-30T06:34:59.362Z,100.00
2022-11-30T06:36:01.225Z,100.00
2022-11-30T06:37:02.972Z,100.00
2022-11-30T06:38:04.836Z,100.00
2022-11-30T06:39:06.977Z,100.00
2022-11-30T06:40:12.463Z,100.00
2022-11-30T06:41:14.322Z,100.00
2022-11-30T06:42:16.189Z,100.00
2022-11-30T06:43:18.824Z,100.00
2022-11-30T06:44:20.980Z,100.00
2022-11-30T06:45:22.834Z,100.00
2022-11-30T06:46:25.083Z,100.00
2022-11-30T06:47:28.161Z,100.00
2022-11-30T06:48:30.199Z,100.00
2022-11-30T06:49:31.959Z,100.00
2022-11-30T06:50:34.011Z,100.00
2022-11-30T06:51:37.333Z,100.00
2022-11-30T06:52:39.063Z,100.00
2022-11-30T06:53:44.391Z,100.00
2022-11-30T06:54:46.505Z,100.00
2022-11-30T06:55:48.643Z,100.00
2022-11-30T06:56:50.439Z,100.00
2022-11-30T06:57:52.210Z,100.00
2022-11-30T06:58:54.409Z,100.00
2022-11-30T06:59:57.331Z,100.00
2022-11-30T07:00:59.268Z,100.00
2022-11-30T07:02:07.541Z,100.00
2022-11-30T07:03:11.956Z,100.00
2022-11-30T07:04:13.707Z,100.00
2022-11-30T07:05:15.730Z,100.00
2022-11-30T07:06:17.869Z,100.00
2022-11-30T07:07:19.973Z,100.00
2022-11-30T07:08:21.980Z,100.00
2022-11-30T07:09:23.727Z,100.00
2022-11-30T07:10:25.500Z,100.00
2022-11-30T07:11:27.863Z,100.00
2022-11-30T07:12:29.634Z,100.00
2022-11-30T07:13:31.770Z,100.00
2022-11-30T07:14:33.560Z,100.00
2022-11-30T07:15:35.831Z,100.00
2022-11-30T07:16:38.215Z,100.00
2022-11-30T07:17:40.162Z,100.00
2022-11-30T07:18:41.962Z,100.00
2022-11-30T07:19:43.780Z,100.00
2022-11-30T07:20:45.497Z,100.00
2022-11-30T07:21:47.222Z,100.00
2022-11-30T07:22:48.955Z,100.00
2022-11-30T07:24:09.485Z,100.00
2022-11-30T07:25:29.608Z,100.00
2022-11-30T07:26:31.435Z,100.00
2022-11-30T07:27:33.183Z,100.00
2022-11-30T07:28:46.834Z,100.00
2022-11-30T07:29:51.600Z,100.00
2022-11-30T07:30:53.423Z,100.00
2022-11-30T07:31:55.866Z,100.00
2022-11-30T07:32:57.763Z,100.00
2022-11-30T07:34:05.750Z,100.00
2022-11-30T07:35:08.119Z,100.00
2022-11-30T07:36:10.377Z,100.00
2022-11-30T07:37:12.310Z,100.00
2022-11-30T07:38:14.089Z,100.00
2022-11-30T07:39:16.073Z,100.00
2022-11-30T07:40:18.041Z,100.00
2022-11-30T07:41:19.778Z,100.00
2022-11-30T07:42:23.205Z,100.00
2022-11-30T07:43:25.008Z,100.00
2022-11-30T07:44:28.040Z,100.00
2022-11-30T07:45:29.900Z,100.00
2022-11-30T07:46:36.192Z,100.00
2022-11-30T07:47:38.027Z,100.00
2022-11-30T07:48:40.163Z,100.00
2022-11-30T07:49:41.998Z,100.00
2022-11-30T07:50:43.775Z,100.00
2022-11-30T07:51:45.739Z,100.00
2022-11-30T07:52:47.490Z,100.00
2022-11-30T07:53:50.437Z,100.00
2022-11-30T07:54:52.224Z,100.00
2022-11-30T07:55:56.985Z,100.00
2022-11-30T07:56:58.956Z,100.00
2022-11-30T07:58:00.724Z,100.00
2022-11-30T07:59:03.763Z,100.00
2022-11-30T08:00:06.469Z,100.00
2022-11-30T08:01:17.314Z,100.00
2022-11-30T08:02:19.346Z,100.00
2022-11-30T08:03:21.402Z,100.00
2022-11-30T08:04:23.524Z,100.00
2022-11-30T08:05:25.320Z,100.00
2022-11-30T08:06:29.826Z,100.00
2022-11-30T08:07:31.685Z,100.00
2022-11-30T08:08:36.529Z,100.00
2022-11-30T08:09:38.358Z,100.00
2022-11-30T08:10:40.099Z,100.00
2022-11-30T08:11:42.061Z,100.00
2022-11-30T08:12:43.774Z,100.00
2022-11-30T08:13:45.960Z,100.00
2022-11-30T08:15:18.188Z,100.00
2022-11-30T08:16:19.064Z,100.00
2022-11-30T08:17:20.862Z,100.00
2022-11-30T08:18:22.687Z,100.00
2022-11-30T08:19:24.439Z,100.00
2022-11-30T08:20:26.219Z,100.00
2022-11-30T08:21:28.007Z,100.00
2022-11-30T08:22:30.101Z,100.00
2022-11-30T08:23:38.040Z,100.00
2022-11-30T08:24:39.846Z,100.00
2022-11-30T08:25:41.642Z,100.00
2022-11-30T08:26:43.461Z,100.00
2022-11-30T08:27:45.289Z,100.00
2022-11-30T08:28:49.134Z,100.00
2022-11-30T08:29:51.045Z,100.00
2022-11-30T08:30:52.877Z,100.00
2022-11-30T08:31:55.419Z,100.00
2022-11-30T08:32:58.062Z,100.00
2022-11-30T08:34:02.982Z,100.00
2022-11-30T08:35:05.339Z,100.00
2022-11-30T08:36:08.091Z,100.00
2022-11-30T08:37:09.936Z,100.00
2022-11-30T08:38:11.774Z,100.00
2022-11-30T08:39:14.005Z,100.00
2022-11-30T08:40:15.946Z,100.00
2022-11-30T08:41:21.984Z,100.00
2022-11-30T08:42:23.729Z,100.00
2022-11-30T08:43:25.506Z,100.00
2022-11-30T08:44:28.372Z,100.00
2022-11-30T08:45:30.193Z,100.00
2022-11-30T08:47:55.425Z,100.00
2022-11-30T08:49:12.997Z,100.00
2022-11-30T08:50:19.550Z,100.00
2022-11-30T08:51:21.927Z,100.00
2022-11-30T08:52:24.045Z,100.00
2022-11-30T08:53:26.376Z,100.00
2022-11-30T08:54:28.105Z,100.00
2022-11-30T08:55:29.887Z,100.00
2022-11-30T08:56:31.670Z,100.00
2022-11-30T08:57:34.002Z,100.00
2022-11-30T08:58:37.943Z,100.00
2022-11-30T08:59:40.095Z,100.00
2022-11-30T09:00:42.071Z,100.00
2022-11-30T09:01:43.893Z,100.00
2022-11-30T09:02:45.718Z,100.00
2022-11-30T09:03:50.613Z,100.00
2022-11-30T09:04:53.543Z,100.00
2022-11-30T09:05:55.359Z,100.00
2022-11-30T09:06:59.389Z,100.00
2022-11-30T09:08:01.455Z,100.00
2022-11-30T09:09:03.576Z,100.00
2022-11-30T09:10:06.116Z,100.00
2022-11-30T09:11:19.923Z,100.00
2022-11-30T09:12:21.934Z,100.00
2022-11-30T09:13:23.863Z,100.00
2022-11-30T09:14:25.623Z,100.00
2022-11-30T09:15:28.018Z,100.00
2022-11-30T09:16:30.034Z,100.00
2022-11-30T09:17:32.166Z,100.00
2022-11-30T09:18:34.178Z,100.00
2022-11-30T09:19:35.982Z,100.00
2022-11-30T09:20:37.778Z,100.00
2022-11-30T09:21:39.641Z,100.00
2022-11-30T09:22:42.161Z,100.00
2022-11-30T09:23:45.968Z,100.00
2022-11-30T09:24:48.147Z,100.00
2022-11-30T09:25:58.694Z,100.00
2022-11-30T09:27:00.837Z,100.00
2022-11-30T09:28:02.632Z,100.00
2022-11-30T09:29:04.599Z,100.00
2022-11-30T09:30:07.277Z,100.00
2022-11-30T09:31:19.466Z,100.00
2022-11-30T09:32:23.449Z,100.00
2022-11-30T09:33:25.225Z,100.00
2022-11-30T09:34:27.011Z,100.00
2022-11-30T09:35:28.810Z,100.00
2022-11-30T09:36:31.097Z,100.00
2022-11-30T09:37:33.453Z,100.00
2022-11-30T09:38:36.136Z,100.00
2022-11-30T09:39:38.049Z,100.00
2022-11-30T09:40:41.864Z,100.00
2022-11-30T09:41:55.811Z,100.00
2022-11-30T09:43:15.172Z,100.00
2022-11-30T09:44:46.538Z,100.00
2022-11-30T09:45:57.599Z,100.00
2022-11-30T09:47:12.278Z,100.00
2022-11-30T09:48:22.944Z,100.00
2022-11-30T09:49:30.801Z,100.00
2022-11-30T09:50:47.297Z,100.00
2022-11-30T09:51:52.524Z,100.00
2022-11-30T09:53:00.900Z,100.00
2022-11-30T09:54:12.205Z,100.00
2022-11-30T09:55:26.836Z,100.00
2022-11-30T09:56:37.808Z,100.00
2022-11-30T09:57:47.075Z,100.00
2022-11-30T09:58:56.785Z,100.00
2022-11-30T10:00:02.963Z,100.00
2022-11-30T10:01:19.250Z,100.00
2022-11-30T10:02:38.184Z,100.00
2022-11-30T10:03:40.455Z,100.00
2022-11-30T10:04:42.757Z,100.00
2022-11-30T10:06:31.090Z,100.00
2022-11-30T10:07:57.750Z,100.00
2022-11-30T10:09:21.015Z,100.00
2022-11-30T10:10:40.917Z,100.00
2022-11-30T10:12:00.217Z,100.00
2022-11-30T10:13:24.780Z,100.00
2022-11-30T10:14:47.402Z,100.00
2022-11-30T10:16:14.123Z,100.00
2022-11-30T10:17:36.085Z,100.00
2022-11-30T10:18:38.124Z,100.00
2022-11-30T10:20:11.679Z,100.00
2022-11-30T10:21:13.294Z,100.00
2022-11-30T10:22:48.049Z,100.00
2022-11-30T10:24:11.285Z,100.00
2022-11-30T10:25:29.065Z,100.00
2022-11-30T10:26:38.142Z,100.00
2022-11-30T10:27:52.536Z,100.00
2022-11-30T10:29:02.807Z,100.00
2022-11-30T10:30:16.054Z,100.00
2022-11-30T10:31:20.649Z,100.00
2022-11-30T10:32:33.539Z,100.00
2022-11-30T10:33:49.608Z,100.00
2022-11-30T10:34:58.434Z,100.00
2022-11-30T10:36:12.422Z,100.00
2022-11-30T10:37:22.783Z,100.00
2022-11-30T10:38:31.806Z,100.00
2022-11-30T10:40:00.995Z,100.00
2022-11-30T10:41:16.282Z,100.00
2022-11-30T10:42:39.166Z,100.00
2022-11-30T10:43:51.827Z,100.00
2022-11-30T10:45:15.365Z,100.00
2022-11-30T10:46:33.002Z,100.00
2022-11-30T10:47:40.825Z,100.00
2022-11-30T10:48:54.560Z,100.00
2022-11-30T10:49:56.373Z,100.00
2022-11-30T10:51:00.195Z,100.00
2022-11-30T10:52:07.381Z,100.00
2022-11-30T10:53:12.365Z,100.00
2022-11-30T10:54:20.336Z,100.00
2022-11-30T10:55:25.150Z,100.00
2022-11-30T10:56:26.941Z,100.00
2022-11-30T10:57:32.474Z,100.00
2022-11-30T10:58:40.222Z,100.00
2022-11-30T10:59:48.251Z,100.00
2022-11-30T11:01:04.286Z,100.00
2022-11-30T11:02:34.810Z,100.00
2022-11-30T11:03:38.107Z,100.00
2022-11-30T11:04:39.951Z,100.00
2022-11-30T11:05:42.036Z,100.00
2022-11-30T11:06:56.896Z,100.00
2022-11-30T11:08:17.138Z,100.00
2022-11-30T11:09:36.440Z,100.00
2022-11-30T11:10:48.222Z,100.00
2022-11-30T11:11:59.573Z,100.00
2022-11-30T11:13:01.477Z,100.00
2022-11-30T11:14:20.439Z,100.00
2022-11-30T11:15:25.977Z,100.00
2022-11-30T11:16:27.824Z,100.00
2022-11-30T11:17:33.049Z,100.00
2022-11-30T11:18:55.457Z,100.00
2022-11-30T11:19:57.322Z,100.00
2022-11-30T11:21:14.513Z,100.00
2022-11-30T11:22:26.075Z,100.00
2022-11-30T11:23:37.419Z,99.99
2022-11-30T11:24:39.883Z,99.90
2022-11-30T11:25:43.146Z,99.81
2022-11-30T11:26:53.588Z,99.72
2022-11-30T11:28:04.478Z,99.57
2022-11-30T11:29:06.564Z,99.23
2022-11-30T11:30:08.951Z,99.39
2022-11-30T11:31:37.864Z,99.33
2022-11-30T11:32:39.747Z,99.37
2022-11-30T11:33:52.002Z,99.33
2022-11-30T11:34:54.566Z,99.29
2022-11-30T11:36:14.891Z,99.18
2022-11-30T11:37:28.964Z,98.97
2022-11-30T11:38:41.865Z,98.81
2022-11-30T11:39:43.675Z,98.50
2022-11-30T11:40:54.972Z,98.41
2022-11-30T11:41:57.188Z,98.13
2022-11-30T11:42:59.784Z,97.88
2022-11-30T11:44:21.451Z,97.54
2022-11-30T11:45:26.230Z,97.60
2022-11-30T11:46:29.964Z,97.75
2022-11-30T11:47:41.158Z,97.83
2022-11-30T11:48:57.827Z,97.77
2022-11-30T11:50:43.248Z,97.51
2022-11-30T11:51:45.264Z,97.79
2022-11-30T11:52:47.331Z,97.95
2022-11-30T11:54:11.366Z,97.92
2022-11-30T11:55:19.093Z,97.95
2022-11-30T11:56:36.502Z,98.29
2022-11-30T11:57:46.049Z,97.95
2022-11-30T11:58:51.740Z,97.66
2022-11-30T12:00:15.697Z,97.53
2022-11-30T12:01:56.227Z,97.23
2022-11-30T12:03:33.906Z,97.13
2022-11-30T12:04:46.727Z,96.76
2022-11-30T12:05:56.531Z,96.83
2022-11-30T12:07:04.252Z,96.82
2022-11-30T12:08:05.973Z,97.03
2022-11-30T12:09:18.318Z,97.08
2022-11-30T12:10:52.457Z,97.24
2022-11-30T12:11:55.020Z,97.45
2022-11-30T12:12:59.351Z,97.55
2022-11-30T12:14:09.312Z,97.54
2022-11-30T12:15:15.148Z,97.49
2022-11-30T12:16:28.933Z,97.60
2022-11-30T12:18:01.692Z,97.63
2022-11-30T12:19:20.433Z,97.48
2022-11-30T12:20:44.088Z,97.46
2022-11-30T12:22:13.420Z,97.41
2022-11-30T12:23:44.699Z,97.45
2022-11-30T12:25:08.723Z,97.34
2022-11-30T12:26:34.958Z,97.27
2022-11-30T12:28:17.216Z,97.17
2022-11-30T12:29:41.407Z,97.39
2022-11-30T12:31:01.352Z,97.44
2022-11-30T12:32:13.787Z,97.31
2022-11-30T12:33:47.388Z,97.43
2022-11-30T12:35:14.688Z,97.59
2022-11-30T12:36:43.894Z,97.68
2022-11-30T12:38:02.855Z,97.46
2022-11-30T12:39:38.723Z,97.28
2022-11-30T12:40:59.020Z,97.04
2022-11-30T12:42:28.800Z,97.03
2022-11-30T12:43:51.425Z,96.75
2022-11-30T12:45:11.665Z,96.53
2022-11-30T12:46:42.114Z,96.71
2022-11-30T12:48:08.323Z,96.64
2022-11-30T12:49:46.852Z,96.59
2022-11-30T12:51:10.411Z,96.53
2022-11-30T12:52:14.791Z,96.69
2022-11-30T12:53:22.578Z,96.69
2022-11-30T12:54:42.139Z,96.48
2022-11-30T12:55:59.166Z,96.70
2022-11-30T12:57:23.694Z,96.43
2022-11-30T12:58:46.533Z,96.47
2022-11-30T13:00:06.427Z,96.45
2022-11-30T13:01:14.745Z,96.57
2022-11-30T13:02:45.767Z,96.40
2022-11-30T13:03:58.502Z,96.50
2022-11-30T13:05:09.579Z,96.59
2022-11-30T13:06:27.007Z,96.94
2022-11-30T13:07:43.154Z,96.78
2022-11-30T13:09:00.257Z,96.59
2022-11-30T13:10:27.294Z,96.29
2022-11-30T13:11:41.370Z,96.10
2022-11-30T13:12:48.237Z,96.61
2022-11-30T13:13:56.097Z,96.57
2022-11-30T13:15:01.868Z,96.56
2022-11-30T13:16:08.289Z,96.42
2022-11-30T13:17:19.369Z,96.26
2022-11-30T13:18:23.900Z,96.52
2022-11-30T13:20:08.197Z,96.79
2022-11-30T13:21:26.774Z,96.57
2022-11-30T13:22:45.326Z,96.39
2022-11-30T13:24:13.480Z,96.37
2022-11-30T13:26:06.833Z,96.07
2022-11-30T13:27:16.921Z,96.26
2022-11-30T13:28:42.991Z,96.25
2022-11-30T13:29:59.340Z,96.12
2022-11-30T13:31:10.097Z,96.03
2022-11-30T13:32:34.292Z,96.14
2022-11-30T13:33:45.934Z,96.00
2022-11-30T13:34:47.947Z,95.94
2022-11-30T13:35:54.698Z,95.74
2022-11-30T13:37:27.318Z,95.99
2022-11-30T13:38:38.369Z,96.17
2022-11-30T13:40:22.475Z,95.49
2022-11-30T13:41:24.530Z,95.56
2022-11-30T13:42:32.738Z,95.79
2022-11-30T13:43:54.702Z,96.24
2022-11-30T13:44:58.149Z,96.34
2022-11-30T13:46:19.676Z,96.26
2022-11-30T13:47:36.298Z,96.27
2022-11-30T13:48:44.091Z,96.39
2022-11-30T13:49:47.232Z,95.99
2022-11-30T13:50:49.358Z,96.10
2022-11-30T13:52:20.007Z,96.05
2022-11-30T13:53:24.160Z,96.24
2022-11-30T13:54:58.245Z,96.44
2022-11-30T13:56:06.652Z,96.34
2022-11-30T13:57:28.781Z,96.18
2022-11-30T13:58:31.596Z,96.39
2022-11-30T13:59:36.361Z,96.36
2022-11-30T14:00:38.066Z,96.48